sensor_id;sensor_type;location;lat;lon;timestamp;P1;durP1;ratioP1;P2;durP2;ratioP2
50976;SDS011;36992;48.200;12.418;2022-10-17T00:00:36;2.33;;;0.85;;
50976;SDS011;36992;48.200;12.418;2022-10-17T00:03:03;3.03;;;1.17;;
50976;SDS011;36992;48.200;12.418;2022-10-17T00:05:30;2.33;;;0.88;;
50976;SDS011;36992;48.200;12.418;2022-10-17T00:07:56;4.00;;;0.73;;
50976;SDS011;36992;48.200;12.418;2022-10-17T00:10:23;1.60;;;0.52;;
50976;SDS011;36992;48.200;12.418;2022-10-17T00:12:49;2.45;;;0.57;;
50976;SDS011;36992;48.200;12.418;2022-10-17T00:15:17;1.55;;;0.70;;
50976;SDS011;36992;48.200;12.418;2022-10-17T00:17:47;2.95;;;0.77;;
50976;SDS011;36992;48.200;12.418;2022-10-17T00:20:14;1.63;;;0.63;;
50976;SDS011;36992;48.200;12.418;2022-10-17T00:22:41;1.52;;;0.60;;
50976;SDS011;36992;48.200;12.418;2022-10-17T00:25:08;1.70;;;0.80;;
50976;SDS011;36992;48.200;12.418;2022-10-17T00:27:35;1.98;;;0.60;;
50976;SDS011;36992;48.200;12.418;2022-10-17T00:30:03;1.20;;;0.47;;
50976;SDS011;36992;48.200;12.418;2022-10-17T00:32:31;2.17;;;0.60;;
50976;SDS011;36992;48.200;12.418;2022-10-17T00:35:00;1.73;;;0.90;;
50976;SDS011;36992;48.200;12.418;2022-10-17T00:37:26;1.63;;;0.50;;
50976;SDS011;36992;48.200;12.418;2022-10-17T00:39:55;1.40;;;0.60;;
50976;SDS011;36992;48.200;12.418;2022-10-17T00:42:22;1.98;;;0.90;;
50976;SDS011;36992;48.200;12.418;2022-10-17T00:44:58;1.20;;;0.50;;
50976;SDS011;36992;48.200;12.418;2022-10-17T00:47:27;1.45;;;0.50;;
50976;SDS011;36992;48.200;12.418;2022-10-17T00:49:55;1.63;;;0.70;;
50976;SDS011;36992;48.200;12.418;2022-10-17T00:52:24;5.40;;;0.70;;
50976;SDS011;36992;48.200;12.418;2022-10-17T00:54:55;1.38;;;0.60;;
50976;SDS011;36992;48.200;12.418;2022-10-17T00:57:23;2.22;;;0.52;;
50976;SDS011;36992;48.200;12.418;2022-10-17T00:59:53;2.15;;;0.70;;
50976;SDS011;36992;48.200;12.418;2022-10-17T01:02:22;1.35;;;0.60;;
50976;SDS011;36992;48.200;12.418;2022-10-17T01:04:49;1.52;;;0.65;;
50976;SDS011;36992;48.200;12.418;2022-10-17T01:07:19;1.70;;;0.40;;
50976;SDS011;36992;48.200;12.418;2022-10-17T01:09:47;1.50;;;0.60;;
50976;SDS011;36992;48.200;12.418;2022-10-17T01:12:15;1.17;;;0.50;;
50976;SDS011;36992;48.200;12.418;2022-10-17T01:14:47;2.65;;;0.60;;
50976;SDS011;36992;48.200;12.418;2022-10-17T01:17:24;1.90;;;0.60;;
50976;SDS011;36992;48.200;12.418;2022-10-17T01:20:02;1.15;;;0.50;;
50976;SDS011;36992;48.200;12.418;2022-10-17T01:22:50;1.65;;;0.60;;
50976;SDS011;36992;48.200;12.418;2022-10-17T01:25:28;1.25;;;0.50;;
50976;SDS011;36992;48.200;12.418;2022-10-17T01:28:09;0.85;;;0.45;;
50976;SDS011;36992;48.200;12.418;2022-10-17T01:30:56;1.08;;;0.43;;
50976;SDS011;36992;48.200;12.418;2022-10-17T01:33:33;0.93;;;0.38;;
50976;SDS011;36992;48.200;12.418;2022-10-17T01:36:10;1.50;;;0.40;;
50976;SDS011;36992;48.200;12.418;2022-10-17T01:38:43;0.65;;;0.30;;
50976;SDS011;36992;48.200;12.418;2022-10-17T01:41:15;1.00;;;0.30;;
50976;SDS011;36992;48.200;12.418;2022-10-17T01:43:51;1.08;;;0.20;;
50976;SDS011;36992;48.200;12.418;2022-10-17T01:46:27;1.15;;;0.50;;
50976;SDS011;36992;48.200;12.418;2022-10-17T01:48:59;1.30;;;0.70;;
50976;SDS011;36992;48.200;12.418;2022-10-17T01:51:28;2.00;;;1.13;;
50976;SDS011;36992;48.200;12.418;2022-10-17T01:54:01;1.77;;;0.40;;
50976;SDS011;36992;48.200;12.418;2022-10-17T01:56:34;1.80;;;0.63;;
50976;SDS011;36992;48.200;12.418;2022-10-17T01:59:05;0.93;;;0.40;;
50976;SDS011;36992;48.200;12.418;2022-10-17T02:01:36;1.10;;;0.43;;
50976;SDS011;36992;48.200;12.418;2022-10-17T02:04:05;0.90;;;0.28;;
50976;SDS011;36992;48.200;12.418;2022-10-17T02:06:33;1.23;;;0.40;;
50976;SDS011;36992;48.200;12.418;2022-10-17T02:09:00;0.75;;;0.30;;
50976;SDS011;36992;48.200;12.418;2022-10-17T02:11:27;0.68;;;0.30;;
50976;SDS011;36992;48.200;12.418;2022-10-17T02:14:12;1.00;;;0.30;;
50976;SDS011;36992;48.200;12.418;2022-10-17T02:16:49;0.80;;;0.30;;
50976;SDS011;36992;48.200;12.418;2022-10-17T02:19:29;1.00;;;0.50;;
50976;SDS011;36992;48.200;12.418;2022-10-17T02:22:06;1.08;;;0.30;;
50976;SDS011;36992;48.200;12.418;2022-10-17T02:24:47;1.33;;;0.30;;
50976;SDS011;36992;48.200;12.418;2022-10-17T02:27:20;1.00;;;0.30;;
50976;SDS011;36992;48.200;12.418;2022-10-17T02:29:58;0.88;;;0.70;;
50976;SDS011;36992;48.200;12.418;2022-10-17T02:32:34;1.10;;;0.50;;
50976;SDS011;36992;48.200;12.418;2022-10-17T02:35:06;0.57;;;0.20;;
50976;SDS011;36992;48.200;12.418;2022-10-17T02:37:36;0.90;;;0.30;;
50976;SDS011;36992;48.200;12.418;2022-10-17T02:40:04;1.73;;;0.47;;
50976;SDS011;36992;48.200;12.418;2022-10-17T02:42:34;1.55;;;1.15;;
50976;SDS011;36992;48.200;12.418;2022-10-17T02:45:01;0.70;;;0.20;;
50976;SDS011;36992;48.200;12.418;2022-10-17T02:47:30;0.47;;;0.20;;
50976;SDS011;36992;48.200;12.418;2022-10-17T02:50:04;0.73;;;0.27;;
50976;SDS011;36992;48.200;12.418;2022-10-17T02:52:33;1.13;;;0.38;;
50976;SDS011;36992;48.200;12.418;2022-10-17T02:55:05;0.95;;;0.20;;
50976;SDS011;36992;48.200;12.418;2022-10-17T02:57:37;1.63;;;0.40;;
50976;SDS011;36992;48.200;12.418;2022-10-17T03:00:07;0.93;;;0.22;;
50976;SDS011;36992;48.200;12.418;2022-10-17T03:02:41;0.65;;;0.25;;
50976;SDS011;36992;48.200;12.418;2022-10-17T03:05:09;0.63;;;0.20;;
50976;SDS011;36992;48.200;12.418;2022-10-17T03:07:37;0.40;;;0.20;;
50976;SDS011;36992;48.200;12.418;2022-10-17T03:10:04;1.98;;;0.30;;
50976;SDS011;36992;48.200;12.418;2022-10-17T03:12:31;1.27;;;0.28;;
50976;SDS011;36992;48.200;12.418;2022-10-17T03:14:58;0.75;;;0.30;;
50976;SDS011;36992;48.200;12.418;2022-10-17T03:17:24;0.40;;;0.20;;
50976;SDS011;36992;48.200;12.418;2022-10-17T03:19:52;0.77;;;0.40;;
50976;SDS011;36992;48.200;12.418;2022-10-17T03:22:19;0.90;;;0.30;;
50976;SDS011;36992;48.200;12.418;2022-10-17T03:24:46;0.70;;;0.20;;
50976;SDS011;36992;48.200;12.418;2022-10-17T03:27:12;0.47;;;0.22;;
50976;SDS011;36992;48.200;12.418;2022-10-17T03:29:39;0.43;;;0.17;;
50976;SDS011;36992;48.200;12.418;2022-10-17T03:32:06;0.68;;;0.20;;
50976;SDS011;36992;48.200;12.418;2022-10-17T03:34:32;1.02;;;0.28;;
50976;SDS011;36992;48.200;12.418;2022-10-17T03:37:00;1.83;;;0.30;;
50976;SDS011;36992;48.200;12.418;2022-10-17T03:39:27;0.60;;;0.20;;
50976;SDS011;36992;48.200;12.418;2022-10-17T03:41:54;0.55;;;0.30;;
50976;SDS011;36992;48.200;12.418;2022-10-17T03:44:20;0.50;;;0.20;;
50976;SDS011;36992;48.200;12.418;2022-10-17T03:46:47;0.70;;;0.20;;
50976;SDS011;36992;48.200;12.418;2022-10-17T03:49:14;0.30;;;0.10;;
50976;SDS011;36992;48.200;12.418;2022-10-17T03:51:40;0.73;;;0.20;;
50976;SDS011;36992;48.200;12.418;2022-10-17T03:54:08;0.55;;;0.20;;
50976;SDS011;36992;48.200;12.418;2022-10-17T03:56:35;0.98;;;0.30;;
50976;SDS011;36992;48.200;12.418;2022-10-17T03:59:02;0.93;;;0.20;;
50976;SDS011;36992;48.200;12.418;2022-10-17T04:01:29;0.60;;;0.28;;
50976;SDS011;36992;48.200;12.418;2022-10-17T04:03:56;2.05;;;0.20;;
50976;SDS011;36992;48.200;12.418;2022-10-17T04:06:22;0.60;;;0.20;;
50976;SDS011;36992;48.200;12.418;2022-10-17T04:08:49;0.65;;;0.20;;
50976;SDS011;36992;48.200;12.418;2022-10-17T04:11:18;0.50;;;0.20;;
50976;SDS011;36992;48.200;12.418;2022-10-17T04:13:45;0.95;;;0.30;;
50976;SDS011;36992;48.200;12.418;2022-10-17T04:16:12;1.90;;;0.30;;
50976;SDS011;36992;48.200;12.418;2022-10-17T04:18:40;1.98;;;0.20;;
50976;SDS011;36992;48.200;12.418;2022-10-17T04:21:07;0.93;;;0.10;;
50976;SDS011;36992;48.200;12.418;2022-10-17T04:23:34;0.88;;;0.30;;
50976;SDS011;36992;48.200;12.418;2022-10-17T04:26:02;4.28;;;0.30;;
50976;SDS011;36992;48.200;12.418;2022-10-17T04:28:31;0.50;;;0.20;;
50976;SDS011;36992;48.200;12.418;2022-10-17T04:30:58;0.73;;;0.20;;
50976;SDS011;36992;48.200;12.418;2022-10-17T04:33:27;0.70;;;0.20;;
50976;SDS011;36992;48.200;12.418;2022-10-17T04:35:55;0.30;;;0.10;;
50976;SDS011;36992;48.200;12.418;2022-10-17T04:38:23;0.75;;;0.20;;
50976;SDS011;36992;48.200;12.418;2022-10-17T04:40:49;0.65;;;0.10;;
50976;SDS011;36992;48.200;12.418;2022-10-17T04:43:16;0.25;;;0.10;;
50976;SDS011;36992;48.200;12.418;2022-10-17T04:45:44;0.93;;;0.20;;
50976;SDS011;36992;48.200;12.418;2022-10-17T04:48:11;0.57;;;0.30;;
50976;SDS011;36992;48.200;12.418;2022-10-17T04:50:37;0.63;;;0.17;;
50976;SDS011;36992;48.200;12.418;2022-10-17T04:53:04;0.52;;;0.10;;
50976;SDS011;36992;48.200;12.418;2022-10-17T04:55:30;0.17;;;0.10;;
50976;SDS011;36992;48.200;12.418;2022-10-17T04:58:02;0.30;;;0.15;;
50976;SDS011;36992;48.200;12.418;2022-10-17T05:00:29;0.30;;;0.10;;
50976;SDS011;36992;48.200;12.418;2022-10-17T05:02:57;0.40;;;0.10;;
50976;SDS011;36992;48.200;12.418;2022-10-17T05:05:24;1.85;;;0.50;;
50976;SDS011;36992;48.200;12.418;2022-10-17T05:07:50;0.90;;;0.30;;
50976;SDS011;36992;48.200;12.418;2022-10-17T05:10:17;1.05;;;0.32;;
50976;SDS011;36992;48.200;12.418;2022-10-17T05:12:45;0.90;;;0.30;;
50976;SDS011;36992;48.200;12.418;2022-10-17T05:15:12;1.55;;;0.28;;
50976;SDS011;36992;48.200;12.418;2022-10-17T05:17:38;0.50;;;0.28;;
50976;SDS011;36992;48.200;12.418;2022-10-17T05:20:07;0.52;;;0.20;;
50976;SDS011;36992;48.200;12.418;2022-10-17T05:22:34;0.47;;;0.20;;
50976;SDS011;36992;48.200;12.418;2022-10-17T05:25:01;1.05;;;0.20;;
50976;SDS011;36992;48.200;12.418;2022-10-17T05:27:28;2.20;;;0.20;;
50976;SDS011;36992;48.200;12.418;2022-10-17T05:29:55;0.93;;;0.25;;
50976;SDS011;36992;48.200;12.418;2022-10-17T05:32:21;0.63;;;0.20;;
50976;SDS011;36992;48.200;12.418;2022-10-17T05:34:48;0.55;;;0.25;;
50976;SDS011;36992;48.200;12.418;2022-10-17T05:37:16;0.73;;;0.20;;
50976;SDS011;36992;48.200;12.418;2022-10-17T05:39:42;0.60;;;0.20;;
50976;SDS011;36992;48.200;12.418;2022-10-17T05:42:09;0.30;;;0.10;;
50976;SDS011;36992;48.200;12.418;2022-10-17T05:44:36;0.80;;;0.47;;
50976;SDS011;36992;48.200;12.418;2022-10-17T05:47:03;0.55;;;0.10;;
50976;SDS011;36992;48.200;12.418;2022-10-17T05:49:30;0.60;;;0.20;;
50976;SDS011;36992;48.200;12.418;2022-10-17T05:51:56;1.15;;;0.40;;
50976;SDS011;36992;48.200;12.418;2022-10-17T05:54:24;1.48;;;0.50;;
50976;SDS011;36992;48.200;12.418;2022-10-17T05:56:51;1.25;;;0.43;;
50976;SDS011;36992;48.200;12.418;2022-10-17T05:59:19;1.00;;;0.30;;
50976;SDS011;36992;48.200;12.418;2022-10-17T06:01:46;0.88;;;0.40;;
50976;SDS011;36992;48.200;12.418;2022-10-17T06:04:13;0.63;;;0.32;;
50976;SDS011;36992;48.200;12.418;2022-10-17T06:06:39;0.75;;;0.35;;
50976;SDS011;36992;48.200;12.418;2022-10-17T06:09:06;0.98;;;0.43;;
50976;SDS011;36992;48.200;12.418;2022-10-17T06:11:34;1.02;;;0.32;;
50976;SDS011;36992;48.200;12.418;2022-10-17T06:14:01;2.97;;;0.30;;
50976;SDS011;36992;48.200;12.418;2022-10-17T06:16:28;2.67;;;0.77;;
50976;SDS011;36992;48.200;12.418;2022-10-17T06:18:55;0.75;;;0.20;;
50976;SDS011;36992;48.200;12.418;2022-10-17T06:21:24;1.17;;;0.35;;
50976;SDS011;36992;48.200;12.418;2022-10-17T06:23:52;0.68;;;0.28;;
50976;SDS011;36992;48.200;12.418;2022-10-17T06:26:19;0.43;;;0.20;;
50976;SDS011;36992;48.200;12.418;2022-10-17T06:28:47;0.90;;;0.30;;
50976;SDS011;36992;48.200;12.418;2022-10-17T06:31:14;1.40;;;0.30;;
50976;SDS011;36992;48.200;12.418;2022-10-17T06:33:42;1.00;;;0.30;;
50976;SDS011;36992;48.200;12.418;2022-10-17T06:36:10;1.33;;;0.30;;
50976;SDS011;36992;48.200;12.418;2022-10-17T06:38:37;1.02;;;0.32;;
50976;SDS011;36992;48.200;12.418;2022-10-17T06:41:05;0.65;;;0.20;;
50976;SDS011;36992;48.200;12.418;2022-10-17T06:43:33;0.47;;;0.20;;
50976;SDS011;36992;48.200;12.418;2022-10-17T06:46:01;1.00;;;0.35;;
50976;SDS011;36992;48.200;12.418;2022-10-17T06:48:28;0.85;;;0.20;;
50976;SDS011;36992;48.200;12.418;2022-10-17T06:50:57;0.95;;;0.30;;
50976;SDS011;36992;48.200;12.418;2022-10-17T06:53:25;1.77;;;0.82;;
50976;SDS011;36992;48.200;12.418;2022-10-17T06:55:52;2.47;;;0.90;;
50976;SDS011;36992;48.200;12.418;2022-10-17T06:58:22;3.22;;;1.40;;
50976;SDS011;36992;48.200;12.418;2022-10-17T07:00:49;6.47;;;2.00;;
50976;SDS011;36992;48.200;12.418;2022-10-17T07:03:17;4.22;;;1.90;;
50976;SDS011;36992;48.200;12.418;2022-10-17T07:05:49;2.58;;;1.17;;
50976;SDS011;36992;48.200;12.418;2022-10-17T07:08:17;5.00;;;2.05;;
50976;SDS011;36992;48.200;12.418;2022-10-17T07:10:43;2.80;;;1.02;;
50976;SDS011;36992;48.200;12.418;2022-10-17T07:13:10;3.20;;;1.23;;
50976;SDS011;36992;48.200;12.418;2022-10-17T07:15:37;5.00;;;1.50;;
50976;SDS011;36992;48.200;12.418;2022-10-17T07:18:04;4.55;;;1.55;;
50976;SDS011;36992;48.200;12.418;2022-10-17T07:20:32;5.35;;;2.45;;
50976;SDS011;36992;48.200;12.418;2022-10-17T07:22:59;4.88;;;1.92;;
50976;SDS011;36992;48.200;12.418;2022-10-17T07:25:26;9.30;;;3.83;;
50976;SDS011;36992;48.200;12.418;2022-10-17T07:27:53;9.27;;;3.08;;
50976;SDS011;36992;48.200;12.418;2022-10-17T07:30:20;11.82;;;3.65;;
50976;SDS011;36992;48.200;12.418;2022-10-17T07:32:47;14.27;;;5.93;;
50976;SDS011;36992;48.200;12.418;2022-10-17T07:35:14;15.60;;;6.00;;
50976;SDS011;36992;48.200;12.418;2022-10-17T07:37:42;12.85;;;4.65;;
50976;SDS011;36992;48.200;12.418;2022-10-17T07:40:09;10.82;;;4.63;;
50976;SDS011;36992;48.200;12.418;2022-10-17T07:42:36;12.30;;;4.55;;
50976;SDS011;36992;48.200;12.418;2022-10-17T07:45:04;9.75;;;4.63;;
50976;SDS011;36992;48.200;12.418;2022-10-17T07:47:31;9.07;;;3.50;;
50976;SDS011;36992;48.200;12.418;2022-10-17T07:49:59;5.28;;;2.15;;
50976;SDS011;36992;48.200;12.418;2022-10-17T07:52:26;4.97;;;1.73;;
50976;SDS011;36992;48.200;12.418;2022-10-17T07:54:54;6.80;;;1.98;;
50976;SDS011;36992;48.200;12.418;2022-10-17T07:57:21;3.10;;;1.30;;
50976;SDS011;36992;48.200;12.418;2022-10-17T07:59:47;5.03;;;1.48;;
50976;SDS011;36992;48.200;12.418;2022-10-17T08:02:17;4.55;;;1.70;;
50976;SDS011;36992;48.200;12.418;2022-10-17T08:04:47;3.08;;;1.20;;
50976;SDS011;36992;48.200;12.418;2022-10-17T08:07:14;3.85;;;0.98;;
50976;SDS011;36992;48.200;12.418;2022-10-17T08:09:41;3.55;;;1.20;;
50976;SDS011;36992;48.200;12.418;2022-10-17T08:12:09;2.40;;;0.75;;
50976;SDS011;36992;48.200;12.418;2022-10-17T08:14:36;3.83;;;1.20;;
50976;SDS011;36992;48.200;12.418;2022-10-17T08:17:03;3.03;;;1.20;;
50976;SDS011;36992;48.200;12.418;2022-10-17T08:19:29;3.97;;;1.80;;
50976;SDS011;36992;48.200;12.418;2022-10-17T08:21:56;2.60;;;1.45;;
50976;SDS011;36992;48.200;12.418;2022-10-17T08:24:23;3.65;;;1.70;;
50976;SDS011;36992;48.200;12.418;2022-10-17T08:26:50;3.42;;;1.40;;
50976;SDS011;36992;48.200;12.418;2022-10-17T08:29:19;2.85;;;1.02;;
50976;SDS011;36992;48.200;12.418;2022-10-17T08:31:45;3.92;;;1.00;;
50976;SDS011;36992;48.200;12.418;2022-10-17T08:34:12;3.42;;;0.90;;
50976;SDS011;36992;48.200;12.418;2022-10-17T08:36:40;4.30;;;1.10;;
50976;SDS011;36992;48.200;12.418;2022-10-17T08:39:07;2.67;;;1.00;;
50976;SDS011;36992;48.200;12.418;2022-10-17T08:41:36;3.15;;;0.80;;
50976;SDS011;36992;48.200;12.418;2022-10-17T08:44:18;1.90;;;0.80;;
50976;SDS011;36992;48.200;12.418;2022-10-17T08:46:58;3.25;;;1.00;;
50976;SDS011;36992;48.200;12.418;2022-10-17T08:49:31;2.30;;;0.82;;
50976;SDS011;36992;48.200;12.418;2022-10-17T08:54:35;3.65;;;1.02;;
50976;SDS011;36992;48.200;12.418;2022-10-17T08:57:08;2.78;;;0.95;;
50976;SDS011;36992;48.200;12.418;2022-10-17T08:59:38;3.08;;;1.13;;
50976;SDS011;36992;48.200;12.418;2022-10-17T09:02:11;4.28;;;0.95;;
50976;SDS011;36992;48.200;12.418;2022-10-17T09:04:59;2.50;;;0.85;;
50976;SDS011;36992;48.200;12.418;2022-10-17T09:07:41;2.70;;;0.70;;
50976;SDS011;36992;48.200;12.418;2022-10-17T09:10:17;1.58;;;0.50;;
50976;SDS011;36992;48.200;12.418;2022-10-17T09:12:50;1.77;;;0.95;;
50976;SDS011;36992;48.200;12.418;2022-10-17T09:15:56;1.38;;;0.50;;
50976;SDS011;36992;48.200;12.418;2022-10-17T09:18:32;1.42;;;0.47;;
50976;SDS011;36992;48.200;12.418;2022-10-17T09:21:04;2.05;;;1.08;;
50976;SDS011;36992;48.200;12.418;2022-10-17T09:23:42;2.10;;;0.60;;
50976;SDS011;36992;48.200;12.418;2022-10-17T09:26:12;1.55;;;0.60;;
50976;SDS011;36992;48.200;12.418;2022-10-17T09:28:41;1.55;;;0.60;;
50976;SDS011;36992;48.200;12.418;2022-10-17T09:31:11;1.55;;;0.45;;
50976;SDS011;36992;48.200;12.418;2022-10-17T09:33:45;1.38;;;0.57;;
50976;SDS011;36992;48.200;12.418;2022-10-17T09:36:16;1.25;;;0.50;;
50976;SDS011;36992;48.200;12.418;2022-10-17T09:38:47;1.58;;;0.38;;
50976;SDS011;36992;48.200;12.418;2022-10-17T09:41:16;0.90;;;0.40;;
50976;SDS011;36992;48.200;12.418;2022-10-17T09:43:45;0.88;;;0.43;;
50976;SDS011;36992;48.200;12.418;2022-10-17T09:46:16;1.23;;;0.60;;
50976;SDS011;36992;48.200;12.418;2022-10-17T09:48:49;1.20;;;0.40;;
50976;SDS011;36992;48.200;12.418;2022-10-17T09:51:20;1.73;;;0.60;;
50976;SDS011;36992;48.200;12.418;2022-10-17T09:53:49;1.35;;;0.50;;
50976;SDS011;36992;48.200;12.418;2022-10-17T09:56:19;1.38;;;0.60;;
50976;SDS011;36992;48.200;12.418;2022-10-17T09:58:47;1.20;;;0.50;;
50976;SDS011;36992;48.200;12.418;2022-10-17T10:01:17;1.25;;;0.50;;
50976;SDS011;36992;48.200;12.418;2022-10-17T10:03:46;1.40;;;0.47;;
50976;SDS011;36992;48.200;12.418;2022-10-17T10:06:13;3.63;;;0.60;;
50976;SDS011;36992;48.200;12.418;2022-10-17T10:08:48;3.38;;;0.60;;
50976;SDS011;36992;48.200;12.418;2022-10-17T10:11:17;1.17;;;0.57;;
50976;SDS011;36992;48.200;12.418;2022-10-17T10:13:47;1.63;;;0.40;;
50976;SDS011;36992;48.200;12.418;2022-10-17T10:16:17;3.65;;;0.68;;
50976;SDS011;36992;48.200;12.418;2022-10-17T10:18:48;1.48;;;0.45;;
50976;SDS011;36992;48.200;12.418;2022-10-17T10:21:16;2.67;;;0.50;;
50976;SDS011;36992;48.200;12.418;2022-10-17T10:23:45;1.27;;;0.70;;
50976;SDS011;36992;48.200;12.418;2022-10-17T10:26:28;1.63;;;0.63;;
50976;SDS011;36992;48.200;12.418;2022-10-17T10:28:58;2.03;;;0.55;;
50976;SDS011;36992;48.200;12.418;2022-10-17T10:31:29;1.50;;;0.60;;
50976;SDS011;36992;48.200;12.418;2022-10-17T10:33:59;1.55;;;0.63;;
50976;SDS011;36992;48.200;12.418;2022-10-17T10:36:48;3.15;;;0.60;;
50976;SDS011;36992;48.200;12.418;2022-10-17T10:39:25;1.98;;;0.80;;
50976;SDS011;36992;48.200;12.418;2022-10-17T10:41:57;2.25;;;0.95;;
50976;SDS011;36992;48.200;12.418;2022-10-17T10:44:25;3.15;;;0.60;;
50976;SDS011;36992;48.200;12.418;2022-10-17T10:49:43;1.13;;;0.50;;
50976;SDS011;36992;48.200;12.418;2022-10-17T10:52:11;4.22;;;1.08;;
50976;SDS011;36992;48.200;12.418;2022-10-17T10:54:45;1.15;;;0.70;;
50976;SDS011;36992;48.200;12.418;2022-10-17T10:57:19;1.40;;;0.50;;
50976;SDS011;36992;48.200;12.418;2022-10-17T10:59:52;2.20;;;0.63;;
50976;SDS011;36992;48.200;12.418;2022-10-17T11:02:25;1.45;;;0.70;;
50976;SDS011;36992;48.200;12.418;2022-10-17T11:04:57;2.40;;;0.70;;
50976;SDS011;36992;48.200;12.418;2022-10-17T11:07:29;1.80;;;0.65;;
50976;SDS011;36992;48.200;12.418;2022-10-17T11:09:59;3.42;;;0.70;;
50976;SDS011;36992;48.200;12.418;2022-10-17T11:12:34;1.58;;;0.75;;
50976;SDS011;36992;48.200;12.418;2022-10-17T11:15:06;2.03;;;0.50;;
50976;SDS011;36992;48.200;12.418;2022-10-17T11:17:44;1.60;;;0.70;;
50976;SDS011;36992;48.200;12.418;2022-10-17T11:20:19;2.63;;;0.50;;
50976;SDS011;36992;48.200;12.418;2022-10-17T11:22:51;1.55;;;0.40;;
50976;SDS011;36992;48.200;12.418;2022-10-17T11:25:27;1.40;;;0.57;;
50976;SDS011;36992;48.200;12.418;2022-10-17T11:27:57;0.90;;;0.40;;
50976;SDS011;36992;48.200;12.418;2022-10-17T11:30:26;1.83;;;0.52;;
50976;SDS011;36992;48.200;12.418;2022-10-17T11:32:58;1.30;;;0.45;;
50976;SDS011;36992;48.200;12.418;2022-10-17T11:35:26;1.52;;;0.60;;
50976;SDS011;36992;48.200;12.418;2022-10-17T11:38:00;1.98;;;0.50;;
50976;SDS011;36992;48.200;12.418;2022-10-17T11:40:43;1.77;;;0.68;;
50976;SDS011;36992;48.200;12.418;2022-10-17T11:43:12;1.92;;;0.82;;
50976;SDS011;36992;48.200;12.418;2022-10-17T11:45:44;1.38;;;0.50;;
50976;SDS011;36992;48.200;12.418;2022-10-17T11:48:25;1.20;;;0.57;;
50976;SDS011;36992;48.200;12.418;2022-10-17T11:50:59;1.10;;;0.50;;
50976;SDS011;36992;48.200;12.418;2022-10-17T11:53:33;1.33;;;0.43;;
50976;SDS011;36992;48.200;12.418;2022-10-17T11:56:10;0.90;;;0.30;;
50976;SDS011;36992;48.200;12.418;2022-10-17T11:58:40;3.20;;;0.45;;
50976;SDS011;36992;48.200;12.418;2022-10-17T12:01:14;3.58;;;0.60;;
50976;SDS011;36992;48.200;12.418;2022-10-17T12:03:56;0.93;;;0.30;;
50976;SDS011;36992;48.200;12.418;2022-10-17T12:06:41;1.38;;;0.57;;
50976;SDS011;36992;48.200;12.418;2022-10-17T12:09:17;2.42;;;0.88;;
50976;SDS011;36992;48.200;12.418;2022-10-17T12:23:03;1.42;;;0.60;;
50976;SDS011;36992;48.200;12.418;2022-10-17T12:25:47;0.93;;;0.40;;
50976;SDS011;36992;48.200;12.418;2022-10-17T12:28:18;2.10;;;0.77;;
50976;SDS011;36992;48.200;12.418;2022-10-17T12:30:52;2.53;;;0.55;;
50976;SDS011;36992;48.200;12.418;2022-10-17T12:33:29;2.38;;;0.50;;
50976;SDS011;36992;48.200;12.418;2022-10-17T12:44:57;1.88;;;0.80;;
50976;SDS011;36992;48.200;12.418;2022-10-17T12:47:34;1.42;;;0.57;;
50976;SDS011;36992;48.200;12.418;2022-10-17T12:50:07;1.60;;;0.50;;
50976;SDS011;36992;48.200;12.418;2022-10-17T12:53:10;1.65;;;0.60;;
50976;SDS011;36992;48.200;12.418;2022-10-17T12:55:43;1.77;;;0.60;;
50976;SDS011;36992;48.200;12.418;2022-10-17T12:58:11;2.97;;;0.80;;
50976;SDS011;36992;48.200;12.418;2022-10-17T13:00:42;1.50;;;0.60;;
50976;SDS011;36992;48.200;12.418;2022-10-17T13:03:18;2.42;;;0.60;;
50976;SDS011;36992;48.200;12.418;2022-10-17T13:05:48;1.35;;;0.70;;
50976;SDS011;36992;48.200;12.418;2022-10-17T13:08:18;1.33;;;0.57;;
50976;SDS011;36992;48.200;12.418;2022-10-17T13:10:50;1.92;;;0.65;;
50976;SDS011;36992;48.200;12.418;2022-10-17T13:13:20;3.67;;;0.60;;
50976;SDS011;36992;48.200;12.418;2022-10-17T13:15:51;2.25;;;0.52;;
50976;SDS011;36992;48.200;12.418;2022-10-17T13:18:20;4.38;;;0.60;;
50976;SDS011;36992;48.200;12.418;2022-10-17T13:20:55;1.70;;;0.50;;
50976;SDS011;36992;48.200;12.418;2022-10-17T13:23:23;2.15;;;0.52;;
50976;SDS011;36992;48.200;12.418;2022-10-17T13:26:04;3.97;;;0.55;;
50976;SDS011;36992;48.200;12.418;2022-10-17T13:28:45;2.75;;;0.60;;
50976;SDS011;36992;48.200;12.418;2022-10-17T13:31:26;1.33;;;0.45;;
50976;SDS011;36992;48.200;12.418;2022-10-17T13:33:55;1.42;;;0.50;;
50976;SDS011;36992;48.200;12.418;2022-10-17T13:36:23;2.50;;;0.60;;
50976;SDS011;36992;48.200;12.418;2022-10-17T13:38:50;1.85;;;0.68;;
50976;SDS011;36992;48.200;12.418;2022-10-17T13:41:18;2.33;;;0.65;;
50976;SDS011;36992;48.200;12.418;2022-10-17T13:43:52;1.50;;;0.60;;
50976;SDS011;36992;48.200;12.418;2022-10-17T13:46:23;2.58;;;0.63;;
50976;SDS011;36992;48.200;12.418;2022-10-17T13:48:52;1.10;;;0.60;;
50976;SDS011;36992;48.200;12.418;2022-10-17T13:51:19;1.75;;;0.57;;
50976;SDS011;36992;48.200;12.418;2022-10-17T13:53:46;1.45;;;0.60;;
50976;SDS011;36992;48.200;12.418;2022-10-17T13:56:17;2.22;;;0.60;;
50976;SDS011;36992;48.200;12.418;2022-10-17T13:58:45;1.10;;;0.40;;
50976;SDS011;36992;48.200;12.418;2022-10-17T14:01:15;1.75;;;0.50;;
50976;SDS011;36992;48.200;12.418;2022-10-17T14:03:42;1.48;;;0.70;;
50976;SDS011;36992;48.200;12.418;2022-10-17T14:06:14;1.48;;;0.55;;
50976;SDS011;36992;48.200;12.418;2022-10-17T14:08:46;1.65;;;0.65;;
50976;SDS011;36992;48.200;12.418;2022-10-17T14:11:18;4.40;;;1.00;;
50976;SDS011;36992;48.200;12.418;2022-10-17T14:13:49;2.03;;;0.80;;
50976;SDS011;36992;48.200;12.418;2022-10-17T14:16:20;1.50;;;0.50;;
50976;SDS011;36992;48.200;12.418;2022-10-17T14:18:48;2.05;;;0.63;;
50976;SDS011;36992;48.200;12.418;2022-10-17T14:21:17;1.50;;;0.55;;
50976;SDS011;36992;48.200;12.418;2022-10-17T14:23:46;2.22;;;0.60;;
50976;SDS011;36992;48.200;12.418;2022-10-17T14:26:14;1.88;;;0.40;;
50976;SDS011;36992;48.200;12.418;2022-10-17T14:28:43;1.40;;;0.60;;
50976;SDS011;36992;48.200;12.418;2022-10-17T14:31:15;1.45;;;0.57;;
50976;SDS011;36992;48.200;12.418;2022-10-17T14:33:50;1.05;;;0.47;;
50976;SDS011;36992;48.200;12.418;2022-10-17T14:36:19;1.70;;;0.60;;
50976;SDS011;36992;48.200;12.418;2022-10-17T14:38:54;2.15;;;0.68;;
50976;SDS011;36992;48.200;12.418;2022-10-17T14:41:22;1.40;;;0.50;;
50976;SDS011;36992;48.200;12.418;2022-10-17T14:43:51;3.10;;;0.68;;
50976;SDS011;36992;48.200;12.418;2022-10-17T14:46:21;1.83;;;0.85;;
50976;SDS011;36992;48.200;12.418;2022-10-17T14:48:51;1.15;;;0.47;;
50976;SDS011;36992;48.200;12.418;2022-10-17T14:51:20;1.73;;;0.52;;
50976;SDS011;36992;48.200;12.418;2022-10-17T14:54:04;2.30;;;0.80;;
50976;SDS011;36992;48.200;12.418;2022-10-17T14:56:43;1.45;;;0.68;;
50976;SDS011;36992;48.200;12.418;2022-10-17T14:59:15;4.38;;;0.80;;
50976;SDS011;36992;48.200;12.418;2022-10-17T15:01:47;2.92;;;0.70;;
50976;SDS011;36992;48.200;12.418;2022-10-17T15:04:14;2.00;;;0.65;;
50976;SDS011;36992;48.200;12.418;2022-10-17T15:06:41;1.80;;;0.90;;
50976;SDS011;36992;48.200;12.418;2022-10-17T15:09:08;2.47;;;1.30;;
50976;SDS011;36992;48.200;12.418;2022-10-17T15:11:35;5.18;;;0.57;;
50976;SDS011;36992;48.200;12.418;2022-10-17T15:14:02;1.35;;;0.40;;
50976;SDS011;36992;48.200;12.418;2022-10-17T15:16:30;1.52;;;0.50;;